createdAt,value
2018-02-02T00:00:48.785Z,1.52
2018-02-02T00:01:49.380Z,1.41
2018-02-02T00:02:49.971Z,1.36
2018-02-02T00:03:50.577Z,1.41
2018-02-02T00:04:51.168Z,1.42
2018-02-02T00:05:51.752Z,1.44
2018-02-02T00:06:52.347Z,1.41
2018-02-02T00:07:52.950Z,1.48
2018-02-02T00:08:53.539Z,1.50
2018-02-02T00:09:54.129Z,1.50
2018-02-02T00:10:54.731Z,1.56
2018-02-02T00:11:55.330Z,1.53
2018-02-02T00:12:55.928Z,1.56
2018-02-02T00:13:56.521Z,1.60
2018-02-02T00:14:57.115Z,1.59
2018-02-02T00:15:57.695Z,1.70
2018-02-02T00:16:58.284Z,1.71
2018-02-02T00:17:58.877Z,1.72
2018-02-02T00:18:59.471Z,1.81
2018-02-02T00:20:00.068Z,1.82
2018-02-02T00:21:00.654Z,1.82
2018-02-02T00:22:01.242Z,1.81
2018-02-02T00:23:01.832Z,1.93
2018-02-02T00:24:02.427Z,1.89
2018-02-02T00:25:03.022Z,1.95
2018-02-02T00:26:03.625Z,2.04
2018-02-02T00:27:04.219Z,2.01
2018-02-02T00:28:04.813Z,2.01
2018-02-02T00:29:05.400Z,1.99
2018-02-02T00:30:05.988Z,2.14
2018-02-02T00:31:06.576Z,2.25
2018-02-02T00:32:07.164Z,2.22
2018-02-02T00:33:07.759Z,2.30
2018-02-02T00:34:08.351Z,2.35
2018-02-02T00:35:08.946Z,2.33
2018-02-02T00:36:09.550Z,2.40
2018-02-02T00:37:10.147Z,2.39
2018-02-02T00:38:10.732Z,2.39
2018-02-02T00:39:11.321Z,2.40
2018-02-02T00:40:11.905Z,2.48
2018-02-02T00:41:12.495Z,2.47
2018-02-02T00:42:13.094Z,2.53
2018-02-02T00:43:13.684Z,2.65
2018-02-02T00:44:14.282Z,2.64
2018-02-02T00:45:14.870Z,2.55
2018-02-02T00:46:15.463Z,2.60
2018-02-02T00:47:16.052Z,2.62
2018-02-02T00:48:16.638Z,2.60
2018-02-02T00:49:17.230Z,2.64
2018-02-02T00:50:17.834Z,2.65
2018-02-02T00:51:18.422Z,2.62
2018-02-02T00:52:19.029Z,2.83
2018-02-02T00:53:19.621Z,2.79
2018-02-02T00:54:20.215Z,2.89
2018-02-02T00:55:20.804Z,2.82
2018-02-02T00:56:21.398Z,2.78
2018-02-02T00:57:21.991Z,2.79
2018-02-02T00:58:22.583Z,2.86
2018-02-02T00:59:23.171Z,2.78
2018-02-02T01:01:07.986Z,2.78
2018-02-02T01:02:08.578Z,2.78
2018-02-02T01:03:09.162Z,2.76
2018-02-02T01:04:09.756Z,2.76
2018-02-02T01:05:10.342Z,2.91
2018-02-02T01:06:10.929Z,2.83
2018-02-02T01:07:11.519Z,2.90
2018-02-02T01:08:12.113Z,2.84
2018-02-02T01:09:12.711Z,2.90
2018-02-02T01:10:13.302Z,2.86
2018-02-02T01:11:13.902Z,2.93
2018-02-02T01:12:14.494Z,3.00
2018-02-02T01:13:15.085Z,3.00
2018-02-02T01:14:15.674Z,2.96
2018-02-02T01:15:16.267Z,2.96
2018-02-02T01:16:16.857Z,2.91
2018-02-02T01:17:17.446Z,3.00
2018-02-02T01:18:18.044Z,2.97
2018-02-02T01:19:18.631Z,2.96
2018-02-02T01:20:19.218Z,3.01
2018-02-02T01:21:19.805Z,3.08
2018-02-02T01:22:20.402Z,3.04
2018-02-02T01:23:20.993Z,3.01
2018-02-02T01:24:21.591Z,3.11
2018-02-02T01:25:22.185Z,3.05
2018-02-02T01:26:22.770Z,3.02
2018-02-02T01:27:23.362Z,3.07
2018-02-02T01:28:23.947Z,3.02
2018-02-02T01:29:24.545Z,2.94
2018-02-02T01:30:25.138Z,3.02
2018-02-02T01:31:25.727Z,3.04
2018-02-02T01:32:26.317Z,3.02
2018-02-02T01:33:26.904Z,3.05
2018-02-02T01:34:27.491Z,2.93
2018-02-02T01:35:28.089Z,2.97
2018-02-02T01:36:28.677Z,2.97
2018-02-02T01:37:29.271Z,2.97
2018-02-02T01:38:29.871Z,2.84
2018-02-02T01:39:30.468Z,2.93
2018-02-02T01:40:31.058Z,2.90
2018-02-02T01:41:31.655Z,2.89
2018-02-02T01:42:32.248Z,2.90
2018-02-02T01:43:32.847Z,2.93
2018-02-02T01:44:33.438Z,2.96
2018-02-02T01:45:34.033Z,2.93
2018-02-02T01:46:34.624Z,2.94
2018-02-02T01:47:35.217Z,2.96
2018-02-02T01:48:35.816Z,2.97
2018-02-02T01:49:36.404Z,2.96
2018-02-02T01:50:37.000Z,3.00
2018-02-02T01:51:37.583Z,3.00
2018-02-02T01:52:38.179Z,2.97
2018-02-02T01:53:38.772Z,2.96
2018-02-02T01:54:39.365Z,2.97
2018-02-02T01:55:39.955Z,2.97
2018-02-02T01:56:40.550Z,2.96
2018-02-02T01:57:41.140Z,3.02
2018-02-02T01:58:41.732Z,3.00
2018-02-02T01:59:42.320Z,3.00
2018-02-02T02:00:42.914Z,3.01
2018-02-02T02:01:43.510Z,2.96
2018-02-02T02:02:44.108Z,2.96
2018-02-02T02:03:44.704Z,2.91
2018-02-02T02:04:45.300Z,2.93
2018-02-02T02:05:45.888Z,2.93
2018-02-02T02:06:46.485Z,3.05
2018-02-02T02:07:47.138Z,3.05
2018-02-02T02:08:47.677Z,3.01
2018-02-02T02:09:48.271Z,3.07
2018-02-02T02:10:48.856Z,3.07
2018-02-02T02:11:49.451Z,3.01
2018-02-02T02:12:50.045Z,3.09
2018-02-02T02:13:50.642Z,3.07
2018-02-02T02:14:51.238Z,3.11
2018-02-02T02:15:51.833Z,3.11
2018-02-02T02:16:52.416Z,3.11
2018-02-02T02:17:53.007Z,3.11
2018-02-02T02:18:53.600Z,3.14
2018-02-02T02:19:54.201Z,3.14
2018-02-02T02:20:54.806Z,3.09
2018-02-02T02:21:55.415Z,3.12
2018-02-02T02:22:55.997Z,3.11
2018-02-02T02:23:56.591Z,3.20
2018-02-02T02:24:57.189Z,3.26
2018-02-02T02:25:57.773Z,3.20
2018-02-02T02:26:58.367Z,3.14
2018-02-02T02:27:58.954Z,3.27
2018-02-02T02:28:59.547Z,3.12
2018-02-02T02:30:00.134Z,3.12
2018-02-02T02:31:00.733Z,3.14
2018-02-02T02:32:01.323Z,3.07
2018-02-02T02:33:01.975Z,3.12
2018-02-02T02:34:02.507Z,3.14
2018-02-02T02:35:03.106Z,3.02
2018-02-02T02:36:03.702Z,3.09
2018-02-02T02:37:04.302Z,3.00
2018-02-02T02:38:04.904Z,2.94
2018-02-02T02:39:05.492Z,3.01
2018-02-02T02:40:06.090Z,2.96
2018-02-02T02:41:06.688Z,2.96
2018-02-02T02:42:07.289Z,2.97
2018-02-02T02:43:07.873Z,2.89
2018-02-02T02:44:08.466Z,2.91
2018-02-02T02:45:09.064Z,2.93
2018-02-02T02:46:09.663Z,2.87
2018-02-02T02:47:10.260Z,2.87
2018-02-02T02:48:10.856Z,2.87
2018-02-02T02:49:11.446Z,2.84
2018-02-02T02:50:12.037Z,2.90
2018-02-02T02:51:12.632Z,2.86
2018-02-02T02:52:13.218Z,2.82
2018-02-02T02:53:13.801Z,2.83
2018-02-02T02:54:14.396Z,2.83
2018-02-02T02:55:14.983Z,2.84
2018-02-02T02:56:15.576Z,2.82
2018-02-02T02:57:16.173Z,2.79
2018-02-02T02:58:16.749Z,2.83
2018-02-02T02:59:17.338Z,2.78
2018-02-02T03:00:17.925Z,2.75
2018-02-02T03:01:18.511Z,2.78
2018-02-02T03:02:19.106Z,2.82
2018-02-02T03:03:19.694Z,2.83
2018-02-02T03:04:20.287Z,2.82
2018-02-02T03:05:20.877Z,2.86
2018-02-02T03:06:21.464Z,2.83
2018-02-02T03:07:22.054Z,2.76
2018-02-02T03:08:22.651Z,2.82
2018-02-02T03:09:23.249Z,2.78
2018-02-02T03:10:23.848Z,2.78
2018-02-02T03:11:24.438Z,2.75
2018-02-02T03:12:25.032Z,2.75
2018-02-02T03:13:25.633Z,2.82
2018-02-02T03:14:26.220Z,2.79
2018-02-02T03:15:26.814Z,2.76
2018-02-02T03:16:27.409Z,2.64
2018-02-02T03:17:27.997Z,2.69
2018-02-02T03:18:28.590Z,2.69
2018-02-02T03:19:29.194Z,2.66
2018-02-02T03:20:29.787Z,2.55
2018-02-02T03:21:30.379Z,2.58
2018-02-02T03:22:30.971Z,2.65
2018-02-02T03:23:31.571Z,2.60
2018-02-02T03:24:32.166Z,2.53
2018-02-02T03:25:32.767Z,2.57
2018-02-02T03:26:33.356Z,2.53
2018-02-02T03:27:33.951Z,2.71
2018-02-02T03:28:34.546Z,2.58
2018-02-02T03:29:35.139Z,2.64
2018-02-02T03:30:35.736Z,2.64
2018-02-02T03:31:36.330Z,2.62
2018-02-02T03:32:36.917Z,2.66
2018-02-02T03:33:37.518Z,2.65
2018-02-02T03:34:38.112Z,2.78
2018-02-02T03:35:38.706Z,2.72
2018-02-02T03:36:39.326Z,2.72
2018-02-02T03:37:39.896Z,2.69
2018-02-02T03:38:40.490Z,2.83
2018-02-02T03:39:41.086Z,2.68
2018-02-02T03:40:41.673Z,2.73
2018-02-02T03:41:42.262Z,2.72
2018-02-02T03:42:42.853Z,2.71
2018-02-02T03:43:43.438Z,2.73
2018-02-02T03:44:44.026Z,2.72
2018-02-02T03:45:44.622Z,2.79
2018-02-02T03:46:45.200Z,2.76
2018-02-02T03:47:45.797Z,2.79
2018-02-02T03:48:46.390Z,2.82
2018-02-02T03:49:46.979Z,2.78
2018-02-02T03:50:47.564Z,2.76
2018-02-02T03:51:48.157Z,2.78
2018-02-02T03:52:48.744Z,2.86
2018-02-02T03:53:49.336Z,2.90
2018-02-02T03:54:49.921Z,2.79
2018-02-02T03:55:50.516Z,2.75
2018-02-02T03:56:51.116Z,2.76
2018-02-02T03:57:51.708Z,2.79
2018-02-02T03:58:52.309Z,2.82
2018-02-02T03:59:52.888Z,2.79
2018-02-02T04:00:53.483Z,2.75
2018-02-02T04:01:54.078Z,2.79
2018-02-02T04:02:54.668Z,2.82
2018-02-02T04:03:55.265Z,2.76
2018-02-02T04:04:55.865Z,2.79
2018-02-02T04:05:56.454Z,2.78
2018-02-02T04:06:57.041Z,2.83
2018-02-02T04:07:57.636Z,2.78
2018-02-02T04:08:58.228Z,2.79
2018-02-02T04:09:58.817Z,2.84
2018-02-02T04:10:59.411Z,2.76
2018-02-02T04:12:00.007Z,2.75
2018-02-02T04:13:00.591Z,2.78
2018-02-02T04:14:01.182Z,2.78
2018-02-02T04:15:01.776Z,2.75
2018-02-02T04:16:02.363Z,2.83
2018-02-02T04:17:02.960Z,2.78
2018-02-02T04:18:03.552Z,2.82
2018-02-02T04:19:04.137Z,2.75
2018-02-02T04:20:04.733Z,2.84
2018-02-02T04:21:05.330Z,2.76
2018-02-02T04:22:05.928Z,2.87
2018-02-02T04:23:06.524Z,2.86
2018-02-02T04:24:07.119Z,2.91
2018-02-02T04:25:07.713Z,2.84
2018-02-02T04:26:08.313Z,2.90
2018-02-02T04:27:08.913Z,2.87
2018-02-02T04:28:09.510Z,2.79
2018-02-02T04:29:10.111Z,2.84
2018-02-02T04:30:10.707Z,2.82
2018-02-02T04:31:11.296Z,2.90
2018-02-02T04:32:11.890Z,2.87
2018-02-02T04:33:12.485Z,2.86
2018-02-02T04:34:13.089Z,2.89
2018-02-02T04:35:13.682Z,2.93
2018-02-02T04:36:14.282Z,2.93
2018-02-02T04:37:14.876Z,2.96
2018-02-02T04:38:15.463Z,2.91
2018-02-02T04:39:16.057Z,2.94
2018-02-02T04:40:16.645Z,2.96
2018-02-02T04:41:17.237Z,2.96
2018-02-02T04:42:17.826Z,3.01
2018-02-02T04:43:18.419Z,2.96
2018-02-02T04:44:19.008Z,3.01
2018-02-02T04:45:19.607Z,2.94
2018-02-02T04:46:20.194Z,2.97
2018-02-02T04:47:20.783Z,3.07
2018-02-02T04:48:21.384Z,2.90
2018-02-02T04:49:21.968Z,2.94
2018-02-02T04:50:22.561Z,3.01
2018-02-02T04:51:23.146Z,3.08
2018-02-02T04:52:23.742Z,3.00
2018-02-02T04:53:24.333Z,3.02
2018-02-02T04:54:24.927Z,3.11
2018-02-02T04:55:25.519Z,3.12
2018-02-02T04:56:26.118Z,3.19
2018-02-02T04:57:26.712Z,3.11
2018-02-02T04:58:27.306Z,3.09
2018-02-02T04:59:27.895Z,3.09
2018-02-02T05:00:28.481Z,3.08
2018-02-02T05:01:29.075Z,3.12
2018-02-02T05:02:29.657Z,3.09
2018-02-02T05:03:30.260Z,3.07
2018-02-02T05:04:30.853Z,3.15
2018-02-02T05:05:31.446Z,3.25
2018-02-02T05:06:32.045Z,3.14
2018-02-02T05:07:32.641Z,3.14
2018-02-02T05:08:33.221Z,3.25
2018-02-02T05:09:33.814Z,3.15
2018-02-02T05:10:34.410Z,3.17
2018-02-02T05:11:35.008Z,3.14
2018-02-02T05:12:35.606Z,3.20
2018-02-02T05:13:36.203Z,3.11
2018-02-02T05:14:36.796Z,3.14
2018-02-02T05:15:37.379Z,3.15
2018-02-02T05:16:37.970Z,3.12
2018-02-02T05:17:38.566Z,3.17
2018-02-02T05:18:39.156Z,3.17
2018-02-02T05:19:39.748Z,3.15
2018-02-02T05:20:40.345Z,3.20
2018-02-02T05:21:40.945Z,3.29
2018-02-02T05:22:41.540Z,3.17
2018-02-02T05:23:42.128Z,3.26
2018-02-02T05:24:42.730Z,3.20
2018-02-02T05:25:43.320Z,3.23
2018-02-02T05:26:43.906Z,3.22
2018-02-02T05:27:44.493Z,3.25
2018-02-02T05:28:45.109Z,3.23
2018-02-02T05:29:45.676Z,3.26
2018-02-02T05:30:46.272Z,3.15
2018-02-02T05:31:46.870Z,3.20
2018-02-02T05:32:47.463Z,3.22
2018-02-02T05:33:48.058Z,3.15
2018-02-02T05:34:48.648Z,3.14
2018-02-02T05:35:49.232Z,3.09
2018-02-02T05:36:49.825Z,3.07
2018-02-02T05:37:50.413Z,3.12
2018-02-02T05:38:51.009Z,3.08
2018-02-02T05:39:51.600Z,3.09
2018-02-02T05:40:52.184Z,3.08
2018-02-02T05:41:52.776Z,3.07
2018-02-02T05:42:53.374Z,3.12
2018-02-02T05:43:53.969Z,3.14
2018-02-02T05:44:54.568Z,3.09
2018-02-02T05:45:55.158Z,3.26
2018-02-02T05:46:55.751Z,3.14
2018-02-02T05:47:56.339Z,3.19
2018-02-02T05:48:56.926Z,3.25
2018-02-02T05:49:57.515Z,3.33
2018-02-02T05:50:58.109Z,3.29
2018-02-02T05:51:58.701Z,3.32
2018-02-02T05:52:59.290Z,3.26
2018-02-02T05:53:59.881Z,3.41
2018-02-02T05:55:00.471Z,3.27
2018-02-02T05:56:01.065Z,3.33
2018-02-02T05:57:01.650Z,3.33
2018-02-02T05:58:02.240Z,3.33
2018-02-02T05:59:02.839Z,3.32
2018-02-02T06:00:03.429Z,3.39
2018-02-02T06:01:04.013Z,3.33
2018-02-02T06:02:04.626Z,3.37
2018-02-02T06:03:05.212Z,3.41
2018-02-02T06:04:05.800Z,3.44
2018-02-02T06:05:06.395Z,3.45
2018-02-02T06:06:06.996Z,3.44
2018-02-02T06:07:07.595Z,3.44
2018-02-02T06:08:08.184Z,3.49
2018-02-02T06:09:08.775Z,3.46
2018-02-02T06:10:09.385Z,3.45
2018-02-02T06:11:09.968Z,3.44
2018-02-02T06:12:10.557Z,3.42
2018-02-02T06:13:11.150Z,3.35
2018-02-02T06:14:11.741Z,3.42
2018-02-02T06:15:12.344Z,3.42
2018-02-02T06:16:12.943Z,3.32
2018-02-02T06:17:13.589Z,3.33
2018-02-02T06:18:14.149Z,3.32
2018-02-02T06:19:14.737Z,3.33
2018-02-02T06:20:15.340Z,3.32
2018-02-02T06:21:15.923Z,3.29
2018-02-02T06:22:16.521Z,3.33
2018-02-02T06:23:17.162Z,3.37
2018-02-02T06:24:17.717Z,3.33
2018-02-02T06:25:18.355Z,3.35
2018-02-02T06:26:18.886Z,3.39
2018-02-02T06:27:19.480Z,3.44
2018-02-02T06:28:20.065Z,3.42
2018-02-02T06:29:20.655Z,3.45
2018-02-02T06:30:21.242Z,3.45
2018-02-02T06:31:21.834Z,3.48
2018-02-02T06:32:22.420Z,3.42
2018-02-02T06:33:23.008Z,3.57
2018-02-02T06:34:23.596Z,3.45
2018-02-02T06:35:24.198Z,3.52
2018-02-02T06:36:24.793Z,3.54
2018-02-02T06:37:25.396Z,3.51
2018-02-02T06:38:25.979Z,3.52
2018-02-02T06:39:26.580Z,3.45
2018-02-02T06:40:27.177Z,3.66
2018-02-02T06:41:27.774Z,3.63
2018-02-02T06:42:28.360Z,3.63
2018-02-02T06:43:28.999Z,3.63
2018-02-02T06:44:29.596Z,3.60
2018-02-02T06:45:30.189Z,3.64
2018-02-02T06:46:30.790Z,3.57
2018-02-02T06:48:15.595Z,3.62
2018-02-02T06:49:16.198Z,3.57
2018-02-02T06:50:16.824Z,3.59
2018-02-02T06:51:17.475Z,3.60
2018-02-02T06:52:18.035Z,3.55
2018-02-02T06:53:18.637Z,3.64
2018-02-02T06:54:19.241Z,3.62
2018-02-02T06:55:19.899Z,3.59
2018-02-02T06:56:20.474Z,3.64
2018-02-02T06:57:21.075Z,3.57
2018-02-02T06:58:21.677Z,3.54
2018-02-02T06:59:22.281Z,3.51
2018-02-02T07:00:22.884Z,3.46
2018-02-02T07:01:23.489Z,3.49
2018-02-02T07:02:24.093Z,3.46
2018-02-02T07:03:24.721Z,3.57
2018-02-02T07:04:25.345Z,3.46
2018-02-02T07:05:25.953Z,3.44
2018-02-02T07:06:26.530Z,3.49
2018-02-02T07:07:27.124Z,3.54
2018-02-02T07:08:27.721Z,3.46
2018-02-02T07:09:28.314Z,3.54
2018-02-02T07:10:28.914Z,3.52
2018-02-02T07:11:29.508Z,3.49
2018-02-02T07:12:30.188Z,3.44
2018-02-02T07:13:30.779Z,3.42
2018-02-02T07:14:31.373Z,3.39
2018-02-02T07:15:31.973Z,3.37
2018-02-02T07:16:32.573Z,3.41
2018-02-02T07:17:33.158Z,3.35
2018-02-02T07:18:33.755Z,3.39
2018-02-02T07:19:34.357Z,3.39
2018-02-02T07:20:34.953Z,3.30
2018-02-02T07:21:35.552Z,3.33
2018-02-02T07:22:36.142Z,3.32
2018-02-02T07:23:36.739Z,3.33
2018-02-02T07:24:37.385Z,3.27
2018-02-02T07:25:37.946Z,3.33
2018-02-02T07:26:38.538Z,3.32
2018-02-02T07:27:39.124Z,3.29
2018-02-02T07:28:39.717Z,3.29
2018-02-02T07:29:40.321Z,3.35
2018-02-02T07:30:40.924Z,3.35
2018-02-02T07:31:41.523Z,3.35
2018-02-02T07:32:42.117Z,3.35
2018-02-02T07:33:42.713Z,3.35
2018-02-02T07:34:43.309Z,3.42
2018-02-02T07:35:43.917Z,3.41
2018-02-02T07:36:44.517Z,3.37
2018-02-02T07:37:45.114Z,3.41
2018-02-02T07:38:45.706Z,3.49
2018-02-02T07:39:46.303Z,3.41
2018-02-02T07:40:47.099Z,3.41
2018-02-02T07:41:47.697Z,3.44
2018-02-02T07:42:48.293Z,3.49
2018-02-02T07:43:48.887Z,3.48
2018-02-02T07:44:49.477Z,3.45
2018-02-02T07:45:50.069Z,3.49
2018-02-02T07:46:50.661Z,3.44
2018-02-02T07:47:51.256Z,3.54
2018-02-02T07:48:51.857Z,3.48
2018-02-02T07:49:52.450Z,3.51
2018-02-02T07:50:53.042Z,3.51
2018-02-02T07:51:53.648Z,3.59
2018-02-02T07:52:54.250Z,3.49
2018-02-02T07:53:54.854Z,3.66
2018-02-02T07:54:55.439Z,3.62
2018-02-02T07:55:56.036Z,3.69
2018-02-02T07:56:56.637Z,3.64
2018-02-02T07:57:57.239Z,3.69
2018-02-02T07:58:57.836Z,3.63
2018-02-02T07:59:58.448Z,3.66
2018-02-02T08:00:59.043Z,3.62
2018-02-02T08:01:59.643Z,3.69
2018-02-02T08:03:00.243Z,3.63
2018-02-02T08:04:00.843Z,3.60
2018-02-02T08:05:01.454Z,3.70
2018-02-02T08:06:02.048Z,3.66
2018-02-02T08:07:02.642Z,3.70
2018-02-02T08:08:03.238Z,3.78
2018-02-02T08:09:03.853Z,3.72
2018-02-02T08:10:04.434Z,3.70
2018-02-02T08:11:05.033Z,3.78
2018-02-02T08:12:05.629Z,3.78
2018-02-02T08:13:06.227Z,3.73
2018-02-02T08:14:06.825Z,3.77
2018-02-02T08:15:07.421Z,3.72
2018-02-02T08:16:08.011Z,3.70
2018-02-02T08:17:08.617Z,3.69
2018-02-02T08:18:09.209Z,3.73
2018-02-02T08:19:09.809Z,3.69
2018-02-02T08:20:10.407Z,3.63
2018-02-02T08:21:11.007Z,3.67
2018-02-02T08:22:11.607Z,3.72
2018-02-02T08:23:12.201Z,3.67
2018-02-02T08:24:12.797Z,3.60
2018-02-02T08:25:13.419Z,3.64
2018-02-02T08:26:14.016Z,3.54
2018-02-02T08:27:14.603Z,3.59
2018-02-02T08:28:15.197Z,3.55
2018-02-02T08:29:15.799Z,3.54
2018-02-02T08:30:16.401Z,3.55
2018-02-02T08:31:17.052Z,3.51
2018-02-02T08:32:17.655Z,3.52
2018-02-02T08:33:18.248Z,3.52
2018-02-02T08:34:18.838Z,3.54
2018-02-02T08:35:19.430Z,3.45
2018-02-02T08:36:20.024Z,3.39
2018-02-02T08:37:20.616Z,3.39
2018-02-02T08:38:21.210Z,3.44
2018-02-02T08:39:21.817Z,3.32
2018-02-02T08:40:22.408Z,3.41
2018-02-02T08:41:23.001Z,3.41
2018-02-02T08:42:23.624Z,3.42
2018-02-02T08:43:24.214Z,3.32
2018-02-02T08:44:24.821Z,3.32
2018-02-02T08:45:25.421Z,3.39
2018-02-02T08:46:26.021Z,3.30
2018-02-02T08:47:26.639Z,3.37
2018-02-02T08:48:27.230Z,3.30
2018-02-02T08:49:27.849Z,3.35
2018-02-02T08:50:28.442Z,3.30
2018-02-02T08:51:29.053Z,3.30
2018-02-02T08:52:29.655Z,3.30
2018-02-02T08:53:30.273Z,3.32
2018-02-02T08:54:30.873Z,3.29
2018-02-02T08:55:31.537Z,3.32
2018-02-02T08:56:32.144Z,3.30
2018-02-02T08:57:32.742Z,3.32
2018-02-02T08:58:33.355Z,3.27
2018-02-02T08:59:33.948Z,3.37
2018-02-02T09:00:34.561Z,3.26
2018-02-02T09:01:35.162Z,3.26
2018-02-02T09:02:35.785Z,3.29
2018-02-02T09:03:36.370Z,3.22
2018-02-02T09:04:37.037Z,3.20
2018-02-02T09:05:37.613Z,3.26
2018-02-02T09:06:38.224Z,3.15
2018-02-02T09:07:38.849Z,3.26
2018-02-02T09:08:39.490Z,3.17
2018-02-02T09:09:40.079Z,3.15
2018-02-02T09:10:40.683Z,3.14
2018-02-02T09:11:41.296Z,3.07
2018-02-02T09:12:41.902Z,3.14
2018-02-02T09:13:42.766Z,3.11
2018-02-02T09:14:43.349Z,3.09
2018-02-02T09:15:43.935Z,3.15
2018-02-02T09:16:44.532Z,3.17
2018-02-02T09:17:45.128Z,3.07
2018-02-02T09:18:45.731Z,3.17
2018-02-02T09:19:46.338Z,3.17
2018-02-02T09:20:46.933Z,3.11
2018-02-02T09:21:47.526Z,3.11
2018-02-02T09:22:48.202Z,3.12
2018-02-02T09:23:48.803Z,3.11
2018-02-02T09:24:49.404Z,3.09
2018-02-02T09:25:50.008Z,3.14
2018-02-02T09:26:50.637Z,3.14
2018-02-02T09:27:51.216Z,3.11
2018-02-02T09:28:51.878Z,3.08
2018-02-02T09:29:52.489Z,3.07
2018-02-02T09:30:53.178Z,3.08
2018-02-02T09:31:53.870Z,3.14
2018-02-02T09:32:54.527Z,3.12
2018-02-02T09:33:55.201Z,3.17
2018-02-02T09:34:55.810Z,3.20
2018-02-02T09:35:56.405Z,3.27
2018-02-02T09:36:57.006Z,3.20
2018-02-02T09:37:57.608Z,3.12
2018-02-02T09:38:58.217Z,3.22
2018-02-02T09:39:58.819Z,3.33
2018-02-02T09:40:59.417Z,3.27
2018-02-02T09:42:00.023Z,3.33
2018-02-02T09:43:00.626Z,3.33
2018-02-02T09:44:01.228Z,3.41
2018-02-02T09:45:01.834Z,3.44
2018-02-02T09:46:02.430Z,3.49
2018-02-02T09:47:03.029Z,3.46
2018-02-02T09:48:03.823Z,3.49
2018-02-02T09:49:04.325Z,3.48
2018-02-02T09:50:04.934Z,3.49
2018-02-02T09:51:05.533Z,3.49
2018-02-02T09:52:06.143Z,3.51
2018-02-02T09:53:06.743Z,3.55
2018-02-02T09:54:07.345Z,3.55
2018-02-02T09:55:07.950Z,3.60
2018-02-02T09:56:08.548Z,3.64
2018-02-02T09:57:09.152Z,3.60
2018-02-02T09:58:09.758Z,3.60
2018-02-02T09:59:10.362Z,3.62
2018-02-02T10:00:10.969Z,3.60
2018-02-02T10:01:11.572Z,3.67
2018-02-02T10:02:12.174Z,3.75
2018-02-02T10:03:13.774Z,3.70
2018-02-02T10:04:14.378Z,3.69
2018-02-02T10:05:14.970Z,3.73
2018-02-02T10:06:15.565Z,3.78
2018-02-02T10:07:16.162Z,3.78
2018-02-02T10:08:16.760Z,3.77
2018-02-02T10:09:17.371Z,3.73
2018-02-02T10:10:17.981Z,3.77
2018-02-02T10:11:18.581Z,3.75
2018-02-02T10:12:19.184Z,3.78
2018-02-02T10:13:19.787Z,3.80
2018-02-02T10:14:20.386Z,3.81
2018-02-02T10:15:20.984Z,3.87
2018-02-02T10:16:21.578Z,3.78
2018-02-02T10:17:22.172Z,3.87
2018-02-02T10:18:22.780Z,3.93
2018-02-02T10:19:23.386Z,3.90
2018-02-02T10:20:23.992Z,3.88
2018-02-02T10:21:24.586Z,3.91
2018-02-02T10:22:25.196Z,3.88
2018-02-02T10:23:25.804Z,4.00
2018-02-02T10:24:26.412Z,3.99
2018-02-02T10:25:27.019Z,4.03
2018-02-02T10:26:27.616Z,4.14
2018-02-02T10:27:28.216Z,4.13
2018-02-02T10:28:29.047Z,4.17
2018-02-02T10:29:29.652Z,4.16
2018-02-02T10:30:30.237Z,4.16
2018-02-02T10:31:30.838Z,4.21
2018-02-02T10:32:31.441Z,4.26
2018-02-02T10:33:32.038Z,4.27
2018-02-02T10:34:32.640Z,4.31
2018-02-02T10:35:33.239Z,4.31
2018-02-02T10:36:33.839Z,4.31
2018-02-02T10:37:34.436Z,4.41
2018-02-02T10:38:35.036Z,4.35
2018-02-02T10:39:35.633Z,4.36
2018-02-02T10:40:36.231Z,4.36
2018-02-02T10:41:36.832Z,4.39
2018-02-02T10:42:37.425Z,4.42
2018-02-02T10:43:38.025Z,4.42
2018-02-02T10:44:38.623Z,4.38
2018-02-02T10:45:39.226Z,4.52
2018-02-02T10:46:39.842Z,4.54
2018-02-02T10:47:40.429Z,4.64
2018-02-02T10:48:41.022Z,4.75
2018-02-02T10:49:41.618Z,4.78
2018-02-02T10:50:42.209Z,4.78
2018-02-02T10:51:42.814Z,4.85
2018-02-02T10:52:43.416Z,4.93
2018-02-02T10:53:44.086Z,5.01
2018-02-02T10:54:44.604Z,5.14
2018-02-02T10:55:45.259Z,5.19
2018-02-02T10:56:45.855Z,5.34
2018-02-02T10:57:46.467Z,5.32
2018-02-02T10:58:47.059Z,5.52
2018-02-02T10:59:47.659Z,5.72
2018-02-02T11:00:48.289Z,5.78
2018-02-02T11:01:48.877Z,5.90
2018-02-02T11:02:49.490Z,5.91
2018-02-02T11:03:50.096Z,5.83
2018-02-02T11:04:50.692Z,5.76
2018-02-02T11:05:51.288Z,5.68
2018-02-02T11:06:51.893Z,5.69
2018-02-02T11:07:52.496Z,5.66
2018-02-02T11:08:53.091Z,5.65
2018-02-02T11:09:53.720Z,5.65
2018-02-02T11:10:54.339Z,5.58
2018-02-02T11:11:54.936Z,5.45
2018-02-02T11:12:55.548Z,5.47
2018-02-02T11:13:56.157Z,5.45
2018-02-02T11:14:56.766Z,5.44
2018-02-02T11:15:57.378Z,5.45
2018-02-02T11:16:57.984Z,5.45
2018-02-02T11:17:58.585Z,5.47
2018-02-02T11:18:59.204Z,5.48
2018-02-02T11:19:59.807Z,5.42
2018-02-02T11:21:00.411Z,5.40
2018-02-02T11:22:01.014Z,5.36
2018-02-02T11:23:01.621Z,5.37
2018-02-02T11:24:02.213Z,5.34
2018-02-02T11:25:02.829Z,5.44
2018-02-02T11:26:03.428Z,5.45
2018-02-02T11:27:04.032Z,5.44
2018-02-02T11:28:04.678Z,5.47
2018-02-02T11:29:05.224Z,5.45
2018-02-02T11:30:05.834Z,5.60
2018-02-02T11:31:06.426Z,5.52
2018-02-02T11:32:07.027Z,5.55
2018-02-02T11:33:07.633Z,5.44
2018-02-02T11:34:08.216Z,5.50
2018-02-02T11:35:08.829Z,5.51
2018-02-02T11:36:09.433Z,5.52
2018-02-02T11:37:10.042Z,5.50
2018-02-02T11:38:10.652Z,5.58
2018-02-02T11:39:11.264Z,5.60
2018-02-02T11:40:11.870Z,5.60
2018-02-02T11:41:12.476Z,5.60
2018-02-02T11:42:13.079Z,5.66
2018-02-02T11:43:13.689Z,5.70
2018-02-02T11:44:14.309Z,5.78
2018-02-02T11:45:14.918Z,5.87
2018-02-02T11:46:15.516Z,5.88
2018-02-02T11:47:16.123Z,5.91
2018-02-02T11:48:16.735Z,5.99
2018-02-02T11:49:17.345Z,6.05
2018-02-02T11:50:17.950Z,6.12
2018-02-02T11:51:18.557Z,6.15
2018-02-02T11:52:19.151Z,6.12
2018-02-02T11:53:19.757Z,6.13
2018-02-02T11:54:20.360Z,6.08
2018-02-02T11:55:20.960Z,6.13
2018-02-02T11:56:21.571Z,6.04
2018-02-02T11:57:22.166Z,6.09
2018-02-02T11:58:22.767Z,6.05
2018-02-02T11:59:23.366Z,5.96
2018-02-02T12:00:23.962Z,5.90
2018-02-02T12:01:24.586Z,5.88
2018-02-02T12:02:25.180Z,5.88
2018-02-02T12:03:25.774Z,5.87
2018-02-02T12:04:26.380Z,5.84
2018-02-02T12:05:26.985Z,5.87
2018-02-02T12:06:27.593Z,5.83
2018-02-02T12:07:28.190Z,5.88
2018-02-02T12:08:28.796Z,5.79
2018-02-02T12:09:29.409Z,5.86
2018-02-02T12:10:30.016Z,5.81
2018-02-02T12:11:30.616Z,5.81
2018-02-02T12:12:31.224Z,5.90
2018-02-02T12:13:31.831Z,5.79
2018-02-02T12:14:32.435Z,5.81
2018-02-02T12:15:33.041Z,5.86
2018-02-02T12:16:33.659Z,5.83
2018-02-02T12:17:34.251Z,5.90
2018-02-02T12:18:34.868Z,5.90
2018-02-02T12:19:35.498Z,5.90
2018-02-02T12:20:36.077Z,5.99
2018-02-02T12:21:36.675Z,5.90
2018-02-02T12:22:37.268Z,5.91
2018-02-02T12:23:37.857Z,5.86
2018-02-02T12:24:38.459Z,5.86
2018-02-02T12:25:39.059Z,5.83
2018-02-02T12:26:39.667Z,5.86
2018-02-02T12:27:40.270Z,5.88
2018-02-02T12:28:40.946Z,5.88
2018-02-02T12:29:41.544Z,5.88
2018-02-02T12:30:42.143Z,6.01
2018-02-02T12:31:42.749Z,6.01
2018-02-02T12:32:43.365Z,5.97
2018-02-02T12:33:43.962Z,6.13
2018-02-02T12:34:44.571Z,6.12
2018-02-02T12:35:45.182Z,6.13
2018-02-02T12:36:45.790Z,6.12
2018-02-02T12:37:46.393Z,6.16
2018-02-02T12:38:46.996Z,6.22
2018-02-02T12:39:47.606Z,6.38
2018-02-02T12:40:48.272Z,6.40
2018-02-02T12:41:48.822Z,6.48
2018-02-02T12:42:49.423Z,6.53
2018-02-02T12:43:50.029Z,6.71
2018-02-02T12:44:50.642Z,6.67
2018-02-02T12:45:51.245Z,6.66
2018-02-02T12:46:51.854Z,6.70
2018-02-02T12:47:52.478Z,6.82
2018-02-02T12:48:53.089Z,6.84
2018-02-02T12:49:53.689Z,6.89
2018-02-02T12:50:54.286Z,6.82
2018-02-02T12:51:54.887Z,6.78
2018-02-02T12:52:55.494Z,6.78
2018-02-02T12:53:56.102Z,6.82
2018-02-02T12:54:56.697Z,6.78
2018-02-02T12:55:57.306Z,6.71
2018-02-02T12:56:57.902Z,6.66
2018-02-02T12:57:58.502Z,6.68
2018-02-02T12:58:59.120Z,6.52
2018-02-02T12:59:59.777Z,6.49
2018-02-02T13:01:00.336Z,6.45
2018-02-02T13:02:01.002Z,6.30
2018-02-02T13:03:01.568Z,6.31
2018-02-02T13:04:02.192Z,6.12
2018-02-02T13:05:02.794Z,6.08
2018-02-02T13:06:03.401Z,5.91
2018-02-02T13:07:04.015Z,5.88
2018-02-02T13:08:04.641Z,5.81
2018-02-02T13:09:05.229Z,5.75
2018-02-02T13:10:06.041Z,5.61
2018-02-02T13:11:06.647Z,5.57
2018-02-02T13:12:07.252Z,5.45
2018-02-02T13:13:07.852Z,5.47
2018-02-02T13:14:08.450Z,5.42
2018-02-02T13:15:09.071Z,5.29
2018-02-02T13:16:09.679Z,5.18
2018-02-02T13:17:10.282Z,5.19
2018-02-02T13:18:10.888Z,5.14
2018-02-02T13:19:11.476Z,5.04
2018-02-02T13:20:12.107Z,5.08
2018-02-02T13:21:12.705Z,5.00
2018-02-02T13:22:13.332Z,4.97
2018-02-02T13:23:13.935Z,4.94
2018-02-02T13:24:14.565Z,4.78
2018-02-02T13:25:15.170Z,4.78
2018-02-02T13:26:15.783Z,4.70
2018-02-02T13:27:16.384Z,4.71
2018-02-02T13:28:16.993Z,4.68